createdAt,value
2019-05-18T00:01:20.150Z,30.73
2019-05-18T00:03:52.090Z,33.10
2019-05-18T00:06:23.949Z,31.53
2019-05-18T00:08:56.842Z,26.97
2019-05-18T00:11:30.751Z,28.80
2019-05-18T00:14:02.430Z,32.03
2019-05-18T00:16:34.770Z,29.87
2019-05-18T00:19:06.920Z,31.13
2019-05-18T00:21:38.562Z,31.73
2019-05-18T00:24:11.176Z,28.63
2019-05-18T00:26:42.753Z,30.40
2019-05-18T00:29:14.072Z,32.37
2019-05-18T00:31:45.733Z,31.87
2019-05-18T00:34:17.023Z,31.90
2019-05-18T00:36:49.842Z,30.77
2019-05-18T00:39:21.471Z,28.37
2019-05-18T00:41:53.316Z,29.27
2019-05-18T00:44:25.760Z,30.57
2019-05-18T00:46:57.729Z,30.33
2019-05-18T00:49:29.191Z,29.53
2019-05-18T00:52:00.601Z,30.97
2019-05-18T00:54:32.724Z,31.87
2019-05-18T00:57:05.023Z,35.53
2019-05-18T00:59:36.849Z,30.53
2019-05-18T01:02:08.575Z,30.50
2019-05-18T01:04:40.681Z,29.63
2019-05-18T01:07:12.018Z,32.03
2019-05-18T01:09:44.346Z,33.47
2019-05-18T01:12:16.243Z,30.47
2019-05-18T01:14:48.391Z,32.43
2019-05-18T01:17:20.108Z,31.70
2019-05-18T01:19:51.650Z,31.10
2019-05-18T01:22:23.070Z,31.47
2019-05-18T01:24:54.525Z,38.27
2019-05-18T01:27:26.908Z,34.17
2019-05-18T01:29:58.479Z,29.60
2019-05-18T01:32:30.670Z,32.37
2019-05-18T01:35:02.050Z,32.50
2019-05-18T01:37:34.373Z,33.73
2019-05-18T01:40:06.257Z,33.73
2019-05-18T01:42:38.504Z,34.53
2019-05-18T01:45:16.804Z,30.03
2019-05-18T01:47:44.242Z,30.53
2019-05-18T01:50:17.240Z,37.30
2019-05-18T01:52:49.489Z,30.20
2019-05-18T01:55:21.203Z,36.13
2019-05-18T01:57:52.772Z,31.93
2019-05-18T02:00:25.611Z,32.93
2019-05-18T02:02:57.242Z,34.87
2019-05-18T02:05:29.799Z,34.00
2019-05-18T02:08:02.881Z,32.73
2019-05-18T02:10:34.839Z,31.00
2019-05-18T02:13:08.872Z,31.63
2019-05-18T02:15:40.359Z,32.07
2019-05-18T02:18:11.918Z,31.57
2019-05-18T02:20:44.148Z,33.20
2019-05-18T02:23:15.424Z,41.53
2019-05-18T02:25:47.310Z,39.20
2019-05-18T02:28:18.727Z,33.40
2019-05-18T02:30:51.881Z,38.33
2019-05-18T02:33:22.762Z,37.10
2019-05-18T02:35:55.062Z,34.40
2019-05-18T02:38:26.986Z,34.67
2019-05-18T02:40:59.153Z,35.00
2019-05-18T02:43:31.778Z,34.77
2019-05-18T02:46:02.852Z,34.20
2019-05-18T02:48:48.902Z,35.07
2019-05-18T02:51:11.310Z,36.67
2019-05-18T02:53:42.413Z,37.67
2019-05-18T02:56:15.021Z,31.50
2019-05-18T02:58:46.604Z,32.40
2019-05-18T03:01:18.400Z,41.50
2019-05-18T03:03:50.351Z,35.77
2019-05-18T03:06:22.233Z,36.50
2019-05-18T03:08:53.659Z,37.70
2019-05-18T03:11:25.651Z,41.07
2019-05-18T03:13:57.173Z,37.37
2019-05-18T03:16:29.622Z,47.07
2019-05-18T03:19:08.169Z,36.80
2019-05-18T03:21:34.899Z,40.33
2019-05-18T03:24:06.560Z,36.13
2019-05-18T03:26:38.433Z,37.10
2019-05-18T03:29:09.787Z,32.57
2019-05-18T03:31:40.817Z,34.07
2019-05-18T03:34:12.554Z,33.80
2019-05-18T03:36:44.749Z,32.70
2019-05-18T03:39:16.945Z,34.47
2019-05-18T03:41:47.993Z,32.00
2019-05-18T03:44:19.891Z,33.73
2019-05-18T03:46:51.523Z,35.47
2019-05-18T03:49:26.592Z,33.73
2019-05-18T03:51:58.595Z,40.47
2019-05-18T03:54:29.829Z,31.60
2019-05-18T03:57:01.510Z,37.50
2019-05-18T03:59:33.005Z,34.70
2019-05-18T04:02:04.808Z,34.07
2019-05-18T04:04:35.835Z,36.43
2019-05-18T04:07:08.082Z,39.57
2019-05-18T04:09:42.150Z,37.87
2019-05-18T04:12:13.832Z,36.27
2019-05-18T04:14:45.639Z,42.30
2019-05-18T04:17:18.388Z,36.10
2019-05-18T04:19:50.643Z,38.93
2019-05-18T04:22:22.231Z,37.40
2019-05-18T04:24:53.566Z,35.00
2019-05-18T04:27:25.287Z,36.83
2019-05-18T04:29:56.429Z,38.83
2019-05-18T04:32:28.307Z,42.93
2019-05-18T04:35:00.005Z,39.50
2019-05-18T04:37:32.195Z,43.07
2019-05-18T04:40:03.694Z,41.33
2019-05-18T04:42:35.809Z,39.40
2019-05-18T04:45:08.182Z,39.17
2019-05-18T04:47:39.947Z,43.43
2019-05-18T04:50:11.921Z,40.53
2019-05-18T04:52:43.492Z,45.37
2019-05-18T04:55:15.034Z,43.70
2019-05-18T04:57:46.602Z,46.90
2019-05-18T05:00:18.062Z,44.83
2019-05-18T05:02:49.432Z,45.73
2019-05-18T05:05:20.785Z,49.20
2019-05-18T05:07:52.875Z,50.73
2019-05-18T05:10:25.731Z,48.27
2019-05-18T05:12:57.770Z,40.53
2019-05-18T05:15:29.396Z,44.03
2019-05-18T05:18:01.401Z,41.17
2019-05-18T05:20:33.128Z,40.90
2019-05-18T05:23:04.569Z,40.97
2019-05-18T05:25:37.398Z,40.30
2019-05-18T05:28:08.928Z,47.47
2019-05-18T05:30:40.333Z,41.77
2019-05-18T05:33:11.789Z,35.70
2019-05-18T05:35:44.131Z,31.67
2019-05-18T05:38:15.997Z,37.47
2019-05-18T05:40:47.964Z,32.07
2019-05-18T05:43:19.463Z,36.00
2019-05-18T05:45:51.364Z,36.80
2019-05-18T05:48:22.950Z,37.03
2019-05-18T05:50:55.524Z,38.50
2019-05-18T05:53:27.269Z,37.53
2019-05-18T05:55:59.155Z,35.93
2019-05-18T05:58:30.441Z,32.60
2019-05-18T06:01:03.045Z,39.27
2019-05-18T06:03:34.276Z,34.87
2019-05-18T06:06:06.442Z,33.03
2019-05-18T06:08:37.783Z,35.43
2019-05-18T06:11:09.471Z,36.37
2019-05-18T06:13:41.368Z,33.00
2019-05-18T06:16:12.820Z,26.23
2019-05-18T06:18:44.676Z,27.10
2019-05-18T06:21:16.189Z,25.33
2019-05-18T06:23:47.800Z,25.43
2019-05-18T06:26:18.913Z,29.27
2019-05-18T06:28:52.487Z,30.60
2019-05-18T06:31:24.060Z,30.63
2019-05-18T06:33:55.537Z,27.80
2019-05-18T06:36:27.225Z,27.87
2019-05-18T06:38:59.085Z,31.47
2019-05-18T06:41:30.841Z,30.60
2019-05-18T06:44:02.304Z,30.17
2019-05-18T06:46:33.229Z,33.97
2019-05-18T06:49:04.391Z,31.67
2019-05-18T06:51:36.019Z,32.60
2019-05-18T06:54:07.476Z,31.60
2019-05-18T06:56:40.550Z,31.63
2019-05-18T06:59:16.207Z,32.57
2019-05-18T07:01:46.583Z,34.40
2019-05-18T07:04:18.677Z,32.27
2019-05-18T07:06:50.740Z,33.37
2019-05-18T07:09:22.768Z,31.50
2019-05-18T07:11:56.214Z,32.33
2019-05-18T07:14:28.550Z,30.13
2019-05-18T07:17:00.628Z,28.83
2019-05-18T07:19:32.643Z,29.27
2019-05-18T07:22:06.230Z,27.27
2019-05-18T07:24:38.803Z,26.87
2019-05-18T07:27:10.939Z,27.17
2019-05-18T07:29:42.723Z,27.63
2019-05-18T07:32:14.693Z,27.10
2019-05-18T07:34:46.560Z,26.70
2019-05-18T07:37:18.830Z,27.00
2019-05-18T07:39:50.852Z,25.20
2019-05-18T07:42:23.143Z,24.17
2019-05-18T07:44:55.434Z,24.83
2019-05-18T07:47:27.835Z,23.87
2019-05-18T07:50:00.050Z,24.80
2019-05-18T07:52:32.206Z,23.07
2019-05-18T07:55:04.149Z,22.60
2019-05-18T07:57:36.130Z,22.50
2019-05-18T08:00:08.193Z,24.07
2019-05-18T08:02:39.425Z,21.70
2019-05-18T08:05:11.402Z,22.77
2019-05-18T08:07:43.565Z,22.30
2019-05-18T08:10:15.351Z,22.33
2019-05-18T08:12:46.891Z,22.93
2019-05-18T08:15:19.464Z,22.40
2019-05-18T08:17:51.712Z,21.10
2019-05-18T08:20:23.435Z,22.33
2019-05-18T08:22:56.312Z,20.50
2019-05-18T08:25:28.718Z,20.37
2019-05-18T08:28:00.564Z,21.33
2019-05-18T08:30:32.555Z,21.40
2019-05-18T08:33:03.949Z,21.47
2019-05-18T08:35:35.191Z,21.13
2019-05-18T08:38:06.757Z,20.53
2019-05-18T08:40:38.823Z,21.40
2019-05-18T08:43:10.951Z,21.23
2019-05-18T08:45:42.513Z,21.97
2019-05-18T08:48:14.211Z,21.50
2019-05-18T08:50:46.104Z,22.87
2019-05-18T08:53:17.844Z,21.77
2019-05-18T08:55:50.002Z,24.27
2019-05-18T08:58:21.834Z,26.47
2019-05-18T09:00:53.453Z,21.70
2019-05-18T09:03:25.850Z,22.17
2019-05-18T09:05:57.070Z,22.10
2019-05-18T09:08:29.229Z,21.67
2019-05-18T09:11:01.435Z,20.17
2019-05-18T09:13:33.886Z,20.80
2019-05-18T09:16:06.395Z,19.80
2019-05-18T09:18:37.887Z,21.27
2019-05-18T09:21:09.719Z,20.10
2019-05-18T09:23:41.643Z,18.90
2019-05-18T09:26:13.323Z,20.13
2019-05-18T09:28:45.385Z,21.17
2019-05-18T09:31:17.714Z,20.00
2019-05-18T09:33:50.238Z,20.60
2019-05-18T09:36:22.346Z,20.40
2019-05-18T09:38:54.548Z,21.23
2019-05-18T09:41:26.379Z,20.97
2019-05-18T09:43:58.131Z,51.40
2019-05-18T09:46:29.633Z,21.45
2019-05-18T09:49:01.568Z,21.90
2019-05-18T09:51:34.040Z,21.87
2019-05-18T09:54:06.505Z,20.95
2019-05-18T09:56:38.017Z,21.00
2019-05-18T09:59:10.004Z,21.50
2019-05-18T10:01:41.893Z,20.62
2019-05-18T10:04:14.083Z,21.25
2019-05-18T10:06:45.919Z,22.02
2019-05-18T10:09:17.803Z,22.02
2019-05-18T10:11:50.913Z,22.32
2019-05-18T10:14:22.509Z,23.32
2019-05-18T10:16:54.567Z,22.02
2019-05-18T10:19:26.635Z,23.00
2019-05-18T10:21:58.238Z,22.20
2019-05-18T10:24:30.386Z,22.27
2019-05-18T10:27:01.915Z,23.15
2019-05-18T10:29:33.751Z,23.90
2019-05-18T10:32:05.302Z,22.97
2019-05-18T10:34:37.742Z,22.17
2019-05-18T10:37:09.455Z,22.25
2019-05-18T10:39:41.311Z,22.85
2019-05-18T10:42:12.734Z,21.57
2019-05-18T10:44:44.120Z,23.80
2019-05-18T10:47:16.231Z,23.47
2019-05-18T10:49:48.972Z,23.00
2019-05-18T10:52:20.928Z,21.73
2019-05-18T10:54:52.423Z,22.82
2019-05-18T10:57:23.811Z,22.67
2019-05-18T10:59:55.326Z,22.65
2019-05-18T11:02:27.192Z,22.97
2019-05-18T11:04:58.102Z,22.77
2019-05-18T11:07:29.812Z,21.47
2019-05-18T11:10:01.293Z,22.05
2019-05-18T11:12:32.723Z,23.10
2019-05-18T11:15:04.064Z,22.53
2019-05-18T11:17:35.587Z,20.70
2019-05-18T11:20:07.487Z,20.70
2019-05-18T11:22:39.239Z,21.27
2019-05-18T11:25:11.328Z,20.40
2019-05-18T11:27:43.050Z,20.67
2019-05-18T11:30:16.851Z,20.65
2019-05-18T11:32:48.396Z,20.73
2019-05-18T11:35:19.562Z,20.50
2019-05-18T11:37:51.417Z,21.52
2019-05-18T11:40:22.467Z,21.97
2019-05-18T11:42:53.444Z,24.80
2019-05-18T11:45:25.051Z,22.00
2019-05-18T11:47:55.891Z,22.97
2019-05-18T11:50:27.651Z,22.57
2019-05-18T11:52:59.287Z,22.00
2019-05-18T11:55:30.328Z,21.45
2019-05-18T11:58:01.123Z,23.10
2019-05-18T12:00:32.405Z,21.48
2019-05-18T12:03:04.008Z,21.27
2019-05-18T12:05:35.407Z,20.37
2019-05-18T12:08:07.623Z,21.17
2019-05-18T12:10:39.647Z,21.73
2019-05-18T12:13:11.830Z,21.40
2019-05-18T12:15:44.090Z,21.30
2019-05-18T12:18:16.065Z,22.27
2019-05-18T12:20:48.076Z,22.57
2019-05-18T12:23:21.245Z,22.60
2019-05-18T12:25:53.347Z,21.87
2019-05-18T12:28:25.493Z,22.00
2019-05-18T12:31:01.952Z,21.80
2019-05-18T12:33:32.177Z,20.40
2019-05-18T12:36:04.773Z,21.35
2019-05-18T12:38:36.668Z,21.52
2019-05-18T12:41:07.941Z,22.90
2019-05-18T12:43:53.028Z,22.53
2019-05-18T12:46:24.773Z,22.63
2019-05-18T12:48:56.792Z,22.67
2019-05-18T12:51:32.993Z,22.43
2019-05-18T12:54:07.532Z,22.23
2019-05-18T12:56:48.494Z,22.00
2019-05-18T12:59:28.533Z,22.43
2019-05-18T13:02:00.558Z,21.57
2019-05-18T13:04:33.019Z,22.23
2019-05-18T13:07:05.774Z,22.13
2019-05-18T13:09:38.241Z,20.73
2019-05-18T13:12:11.835Z,20.63
2019-05-18T13:14:44.366Z,19.90
2019-05-18T13:17:17.034Z,22.33
2019-05-18T13:19:48.085Z,22.50
2019-05-18T13:22:19.195Z,22.57
2019-05-18T13:24:52.236Z,22.03
2019-05-18T13:27:37.983Z,22.47
2019-05-18T13:29:57.179Z,21.90
2019-05-18T13:32:29.632Z,22.23
2019-05-18T13:35:01.963Z,21.13
2019-05-18T13:37:33.656Z,21.07
2019-05-18T13:40:05.592Z,21.43
2019-05-18T13:42:37.288Z,23.20
2019-05-18T13:45:10.079Z,22.60
2019-05-18T13:47:41.876Z,23.80
2019-05-18T13:50:15.082Z,22.07
2019-05-18T13:52:47.155Z,22.90
2019-05-18T13:55:18.983Z,22.03
2019-05-18T13:57:50.313Z,20.90
2019-05-18T14:00:23.329Z,21.63
2019-05-18T14:02:54.880Z,21.37
2019-05-18T14:05:26.760Z,21.90
2019-05-18T14:07:58.418Z,21.97
2019-05-18T14:10:31.190Z,22.70
2019-05-18T14:13:02.883Z,22.17
2019-05-18T14:15:34.390Z,22.30
2019-05-18T14:18:05.871Z,21.33
2019-05-18T14:20:37.001Z,21.90
2019-05-18T14:23:08.967Z,22.90
2019-05-18T14:25:42.311Z,20.20
2019-05-18T14:28:14.514Z,19.10
2019-05-18T14:30:47.384Z,19.07
2019-05-18T14:33:18.990Z,19.40
2019-05-18T14:35:50.557Z,19.70
2019-05-18T14:38:22.552Z,20.77
2019-05-18T14:40:53.783Z,18.90
2019-05-18T14:43:24.856Z,19.73
2019-05-18T14:45:56.881Z,19.47
2019-05-18T14:48:29.160Z,18.83
2019-05-18T14:51:00.891Z,18.30
2019-05-18T14:53:32.519Z,18.00
2019-05-18T14:56:04.820Z,17.90
2019-05-18T14:58:36.316Z,19.27
2019-05-18T15:01:07.459Z,17.90
2019-05-18T15:03:39.208Z,19.60
2019-05-18T15:06:10.310Z,24.60
2019-05-18T15:08:41.481Z,19.70
2019-05-18T15:11:13.450Z,21.47
2019-05-18T15:13:46.099Z,23.77
2019-05-18T15:16:17.916Z,22.03
2019-05-18T15:18:49.837Z,21.37
2019-05-18T15:21:24.680Z,19.27
2019-05-18T15:23:55.956Z,20.50
2019-05-18T15:26:27.568Z,18.73
2019-05-18T15:28:59.739Z,21.63
2019-05-18T15:31:31.156Z,19.33
2019-05-18T15:34:02.748Z,19.10
2019-05-18T15:36:34.442Z,19.03
2019-05-18T15:39:07.948Z,21.20
2019-05-18T15:41:39.791Z,21.33
2019-05-18T15:44:11.023Z,18.17
2019-05-18T15:46:42.351Z,18.53
2019-05-18T15:49:13.729Z,18.80
2019-05-18T15:51:45.513Z,18.77
2019-05-18T15:54:17.313Z,18.90
2019-05-18T15:56:49.481Z,19.50
2019-05-18T15:59:20.718Z,20.10
2019-05-18T16:01:52.707Z,18.77
2019-05-18T16:04:23.848Z,18.90
2019-05-18T16:06:55.756Z,21.37
2019-05-18T16:09:27.447Z,18.40
2019-05-18T16:11:59.793Z,18.80
2019-05-18T16:14:31.885Z,18.53
2019-05-18T16:17:03.476Z,18.77
2019-05-18T16:19:35.470Z,18.23
2019-05-18T16:22:07.696Z,21.07
2019-05-18T16:24:40.529Z,19.13
2019-05-18T16:27:11.775Z,19.83
2019-05-18T16:29:44.268Z,19.37
2019-05-18T16:32:16.193Z,19.17
2019-05-18T16:34:48.310Z,18.70
2019-05-18T16:37:20.147Z,19.17
2019-05-18T16:39:51.411Z,18.90
2019-05-18T16:42:22.888Z,19.77
2019-05-18T16:44:55.205Z,19.07
2019-05-18T16:47:26.880Z,18.93
2019-05-18T16:49:59.516Z,17.30
2019-05-18T16:52:32.154Z,18.20
2019-05-18T16:55:04.023Z,18.43
2019-05-18T16:57:35.150Z,18.00
2019-05-18T17:00:07.030Z,20.20
2019-05-18T17:02:38.278Z,18.33
2019-05-18T17:05:11.350Z,18.97
2019-05-18T17:07:43.039Z,18.47
2019-05-18T17:10:16.310Z,19.10
2019-05-18T17:12:48.599Z,18.33
2019-05-18T17:15:20.689Z,18.90
2019-05-18T17:17:52.988Z,18.27
2019-05-18T17:20:25.109Z,19.37
2019-05-18T17:22:56.780Z,19.00
2019-05-18T17:25:28.674Z,20.53
2019-05-18T17:28:00.754Z,18.57
2019-05-18T17:30:32.915Z,19.27
2019-05-18T17:33:04.515Z,17.93
2019-05-18T17:35:37.193Z,19.53
2019-05-18T17:38:09.030Z,18.40
2019-05-18T17:40:42.674Z,18.40
2019-05-18T17:43:14.408Z,17.83
2019-05-18T17:45:47.321Z,19.40
2019-05-18T17:48:19.666Z,18.83
2019-05-18T17:50:51.770Z,18.90
2019-05-18T17:53:24.554Z,18.30
2019-05-18T17:55:56.741Z,19.93
2019-05-18T17:58:28.260Z,19.30
2019-05-18T18:01:01.061Z,57.77
2019-05-18T18:03:32.667Z,26.03
2019-05-18T18:06:04.277Z,19.00
2019-05-18T18:08:35.542Z,19.50
2019-05-18T18:11:07.785Z,19.70
2019-05-18T18:13:40.075Z,21.30
2019-05-18T18:16:12.074Z,20.73
2019-05-18T18:18:44.361Z,21.57
2019-05-18T18:21:16.642Z,21.40
2019-05-18T18:23:54.903Z,21.47
2019-05-18T18:26:22.314Z,21.07
2019-05-18T18:28:54.551Z,20.60
2019-05-18T18:31:26.178Z,21.70
2019-05-18T18:33:57.829Z,21.37
2019-05-18T18:36:32.478Z,22.10
2019-05-18T18:39:05.126Z,21.17
2019-05-18T18:41:36.293Z,22.13
2019-05-18T18:44:07.822Z,20.37
2019-05-18T18:46:39.365Z,22.83
2019-05-18T18:49:11.773Z,22.73
2019-05-18T18:51:43.058Z,22.60
2019-05-18T18:54:15.136Z,22.97
2019-05-18T18:56:46.639Z,22.97
2019-05-18T18:59:18.637Z,24.47
2019-05-18T19:01:50.026Z,22.50
2019-05-18T19:04:21.845Z,23.63
2019-05-18T19:06:53.910Z,23.00
2019-05-18T19:09:25.718Z,23.60
2019-05-18T19:12:00.691Z,24.07
2019-05-18T19:14:32.567Z,24.50
2019-05-18T19:17:04.232Z,23.63
2019-05-18T19:19:39.990Z,24.67
2019-05-18T19:22:11.285Z,24.17
2019-05-18T19:24:43.352Z,23.10
2019-05-18T19:27:16.753Z,24.40
2019-05-18T19:29:48.654Z,23.63
2019-05-18T19:32:20.680Z,23.27
2019-05-18T19:34:53.584Z,24.17
2019-05-18T19:37:26.562Z,25.10
2019-05-18T19:39:58.322Z,28.00
2019-05-18T19:42:30.380Z,25.17
2019-05-18T19:45:02.233Z,24.20
2019-05-18T19:47:34.720Z,26.13
2019-05-18T19:50:06.336Z,29.50
2019-05-18T19:52:38.459Z,29.10
2019-05-18T19:55:11.760Z,32.90
2019-05-18T19:57:43.026Z,29.80
2019-05-18T20:00:15.630Z,30.10
2019-05-18T20:02:47.802Z,30.83
2019-05-18T20:05:19.834Z,27.97
2019-05-18T20:07:52.379Z,28.73
2019-05-18T20:10:25.100Z,28.97
2019-05-18T20:12:57.201Z,28.33
2019-05-18T20:15:29.623Z,32.23
2019-05-18T20:18:01.076Z,31.10
2019-05-18T20:20:33.705Z,27.20
2019-05-18T20:23:08.329Z,30.13
2019-05-18T20:25:39.476Z,31.37
2019-05-18T20:28:22.843Z,30.43
2019-05-18T20:30:44.558Z,29.30
2019-05-18T20:33:15.520Z,32.13
2019-05-18T20:35:48.698Z,31.03
2019-05-18T20:38:20.111Z,36.70
2019-05-18T20:40:51.445Z,35.67
2019-05-18T20:43:22.676Z,33.77
2019-05-18T20:45:53.881Z,34.17
2019-05-18T20:48:26.199Z,35.13
2019-05-18T20:50:58.237Z,36.17
2019-05-18T20:53:29.429Z,34.33
2019-05-18T20:56:01.194Z,33.80
2019-05-18T20:58:40.091Z,30.63
2019-05-18T21:01:06.983Z,30.10
2019-05-18T21:03:38.767Z,29.07
2019-05-18T21:06:11.515Z,30.40
2019-05-18T21:08:43.593Z,30.20
2019-05-18T21:11:16.274Z,29.37
2019-05-18T21:13:48.909Z,30.87
2019-05-18T21:16:20.763Z,29.37
2019-05-18T21:18:53.312Z,29.10
2019-05-18T21:21:26.813Z,28.87
2019-05-18T21:24:00.170Z,29.37
2019-05-18T21:26:32.484Z,29.10
2019-05-18T21:29:04.697Z,35.80
2019-05-18T21:31:40.164Z,31.63
2019-05-18T21:34:12.681Z,30.90
2019-05-18T21:36:44.567Z,27.27
2019-05-18T21:39:16.447Z,28.10
2019-05-18T21:41:48.009Z,27.07
2019-05-18T21:44:19.950Z,25.67
2019-05-18T21:46:51.973Z,25.33
2019-05-18T21:49:23.298Z,27.77
2019-05-18T21:51:54.960Z,25.60
2019-05-18T21:54:27.675Z,25.90
2019-05-18T21:56:59.930Z,27.70
2019-05-18T21:59:32.178Z,27.07
2019-05-18T22:02:04.220Z,27.60
2019-05-18T22:04:35.902Z,27.07
2019-05-18T22:07:08.292Z,26.50
2019-05-18T22:09:40.491Z,24.47
2019-05-18T22:12:12.862Z,26.90
2019-05-18T22:14:45.908Z,27.17
2019-05-18T22:17:18.542Z,26.27
2019-05-18T22:19:50.829Z,26.10
2019-05-18T22:22:22.869Z,26.80
2019-05-18T22:24:54.479Z,26.03
2019-05-18T22:27:26.480Z,24.50
2019-05-18T22:29:58.593Z,28.10
2019-05-18T22:32:30.485Z,25.97
2019-05-18T22:35:03.489Z,25.73
2019-05-18T22:37:34.821Z,26.87
2019-05-18T22:40:06.600Z,26.10
2019-05-18T22:42:38.854Z,25.43
2019-05-18T22:45:10.428Z,26.70
2019-05-18T22:47:43.079Z,25.43
2019-05-18T22:50:15.118Z,27.20
2019-05-18T22:52:47.076Z,28.33
2019-05-18T22:55:20.064Z,28.13
2019-05-18T22:57:52.772Z,29.33
2019-05-18T23:00:24.643Z,28.67
2019-05-18T23:02:56.613Z,29.20
2019-05-18T23:05:30.086Z,28.43
2019-05-18T23:08:02.048Z,28.03
2019-05-18T23:10:34.230Z,27.40
2019-05-18T23:13:05.992Z,27.53
2019-05-18T23:15:37.036Z,27.23
2019-05-18T23:18:08.864Z,28.67
2019-05-18T23:20:40.671Z,29.50
2019-05-18T23:23:12.014Z,27.90
2019-05-18T23:25:44.277Z,29.30
2019-05-18T23:28:16.344Z,28.83
2019-05-18T23:30:49.040Z,27.57
2019-05-18T23:33:21.692Z,27.60
2019-05-18T23:35:53.833Z,26.90
2019-05-18T23:38:26.967Z,26.90
2019-05-18T23:40:58.598Z,25.70
2019-05-18T23:43:31.114Z,27.87
2019-05-18T23:46:03.248Z,27.80
2019-05-18T23:48:34.157Z,27.87
2019-05-18T23:51:06.404Z,27.00
2019-05-18T23:53:38.152Z,26.47
2019-05-18T23:56:11.269Z,25.53
2019-05-18T23:58:43.859Z,25.03
